createdAt,value
2018-10-17T00:01:06.567Z,15.80
2018-10-17T00:03:34.830Z,15.80
2018-10-17T00:06:03.114Z,15.80
2018-10-17T00:08:31.379Z,15.80
2018-10-17T00:10:59.731Z,15.80
2018-10-17T00:13:28.082Z,15.80
2018-10-17T00:15:56.378Z,15.70
2018-10-17T00:18:24.656Z,15.70
2018-10-17T00:20:52.931Z,15.70
2018-10-17T00:23:21.196Z,15.60
2018-10-17T00:25:49.501Z,15.60
2018-10-17T00:28:17.775Z,15.50
2018-10-17T00:30:46.067Z,15.50
2018-10-17T00:33:14.326Z,15.50
2018-10-17T00:35:42.643Z,15.40
2018-10-17T00:38:11.042Z,15.40
2018-10-17T00:40:39.307Z,15.30
2018-10-17T00:43:07.613Z,15.30
2018-10-17T00:45:35.891Z,15.30
2018-10-17T00:48:04.181Z,15.20
2018-10-17T00:50:32.455Z,15.20
2018-10-17T00:53:00.744Z,15.20
2018-10-17T00:55:29.010Z,15.20
2018-10-17T00:57:57.293Z,15.10
2018-10-17T01:00:25.745Z,15.10
2018-10-17T01:02:54.017Z,15.10
2018-10-17T01:05:22.295Z,15.10
2018-10-17T01:07:50.616Z,15.10
2018-10-17T01:10:18.899Z,15.00
2018-10-17T01:12:47.179Z,15.00
2018-10-17T01:15:15.464Z,15.00
2018-10-17T01:17:43.734Z,15.00
2018-10-17T01:20:11.995Z,15.00
2018-10-17T01:22:40.260Z,15.00
2018-10-17T01:25:08.605Z,15.00
2018-10-17T01:27:36.842Z,15.00
2018-10-17T01:30:06.279Z,15.00
2018-10-17T01:32:34.554Z,15.00
2018-10-17T01:35:02.853Z,15.00
2018-10-17T01:37:31.130Z,14.90
2018-10-17T01:39:59.406Z,14.90
2018-10-17T01:42:27.665Z,14.90
2018-10-17T01:44:56.019Z,14.80
2018-10-17T01:47:24.275Z,14.90
2018-10-17T01:49:52.561Z,14.90
2018-10-17T01:52:20.814Z,14.90
2018-10-17T01:54:49.090Z,14.90
2018-10-17T01:57:17.351Z,14.90
2018-10-17T01:59:45.644Z,14.90
2018-10-17T02:02:13.932Z,14.80
2018-10-17T02:04:42.228Z,14.80
2018-10-17T02:07:10.565Z,14.80
2018-10-17T02:09:38.794Z,14.80
2018-10-17T02:12:07.079Z,14.80
2018-10-17T02:14:35.351Z,14.80
2018-10-17T02:17:03.636Z,14.80
2018-10-17T02:19:31.913Z,14.80
2018-10-17T02:22:00.188Z,14.80
2018-10-17T02:24:28.475Z,14.80
2018-10-17T02:26:56.746Z,14.80
2018-10-17T02:29:25.047Z,14.80
2018-10-17T02:31:53.319Z,14.80
2018-10-17T02:34:21.591Z,14.80
2018-10-17T02:36:49.864Z,14.70
2018-10-17T02:39:18.159Z,14.70
2018-10-17T02:41:46.456Z,14.60
2018-10-17T02:44:14.742Z,14.60
2018-10-17T02:46:43.048Z,14.50
2018-10-17T02:49:11.421Z,14.50
2018-10-17T02:51:39.625Z,14.50
2018-10-17T02:54:08.128Z,14.40
2018-10-17T02:56:36.412Z,14.30
2018-10-17T02:59:04.814Z,14.20
2018-10-17T03:01:33.079Z,14.10
2018-10-17T03:04:01.356Z,14.10
2018-10-17T03:06:29.640Z,14.10
2018-10-17T03:08:57.980Z,14.10
2018-10-17T03:11:26.258Z,14.10
2018-10-17T03:13:54.536Z,14.20
2018-10-17T03:16:22.840Z,14.20
2018-10-17T03:18:51.615Z,14.20
2018-10-17T03:21:22.164Z,14.20
2018-10-17T03:23:50.988Z,14.20
2018-10-17T03:26:19.992Z,14.20
2018-10-17T03:28:48.737Z,14.20
2018-10-17T03:31:18.191Z,14.20
2018-10-17T03:33:47.830Z,14.20
2018-10-17T03:36:16.677Z,14.20
2018-10-17T03:38:46.055Z,14.10
2018-10-17T03:41:14.935Z,14.10
2018-10-17T03:43:43.716Z,14.20
2018-10-17T03:46:12.422Z,14.20
2018-10-17T03:48:41.211Z,14.20
2018-10-17T03:51:10.086Z,14.20
2018-10-17T03:53:38.352Z,14.20
2018-10-17T03:56:06.677Z,14.20
2018-10-17T03:58:35.035Z,14.10
2018-10-17T04:01:03.728Z,14.10
2018-10-17T04:03:32.015Z,14.10
2018-10-17T04:06:00.721Z,14.10
2018-10-17T04:08:29.403Z,14.10
2018-10-17T04:10:57.756Z,14.10
2018-10-17T04:13:26.029Z,14.10
2018-10-17T04:15:54.357Z,14.10
2018-10-17T04:18:22.843Z,14.10
2018-10-17T04:20:51.729Z,14.10
2018-10-17T04:23:20.614Z,14.10
2018-10-17T04:25:49.112Z,14.10
2018-10-17T04:28:18.442Z,14.10
2018-10-17T04:30:46.781Z,14.10
2018-10-17T04:33:15.115Z,14.10
2018-10-17T04:35:43.719Z,14.00
2018-10-17T04:38:12.096Z,14.00
2018-10-17T04:40:40.581Z,13.90
2018-10-17T04:43:08.972Z,13.90
2018-10-17T04:45:37.283Z,13.90
2018-10-17T04:48:05.912Z,13.90
2018-10-17T04:50:34.207Z,13.90
2018-10-17T04:53:02.519Z,13.90
2018-10-17T04:55:30.865Z,13.90
2018-10-17T04:57:59.225Z,13.80
2018-10-17T05:00:27.516Z,13.80
2018-10-17T05:02:55.792Z,13.80
2018-10-17T05:05:24.169Z,13.70
2018-10-17T05:07:52.937Z,13.70
2018-10-17T05:10:21.252Z,13.70
2018-10-17T05:12:49.536Z,13.70
2018-10-17T05:15:18.444Z,13.70
2018-10-17T05:17:46.904Z,13.70
2018-10-17T05:20:15.339Z,13.70
2018-10-17T05:22:43.632Z,13.70
2018-10-17T05:25:11.987Z,13.70
2018-10-17T05:30:14.960Z,13.70
2018-10-17T05:32:43.240Z,13.70
2018-10-17T05:35:11.584Z,13.70
2018-10-17T05:37:39.890Z,13.70
2018-10-17T05:40:09.132Z,13.80
2018-10-17T05:42:38.399Z,13.80
2018-10-17T05:45:07.524Z,13.80
2018-10-17T05:47:35.892Z,13.70
2018-10-17T05:50:04.286Z,13.70
2018-10-17T05:52:32.917Z,13.70
2018-10-17T05:55:01.217Z,13.70
2018-10-17T05:57:29.873Z,13.70
2018-10-17T05:59:58.491Z,13.70
2018-10-17T06:02:29.273Z,13.60
2018-10-17T06:04:57.907Z,13.60
2018-10-17T06:07:26.482Z,13.60
2018-10-17T06:09:54.767Z,13.60
2018-10-17T06:12:23.057Z,13.60
2018-10-17T06:14:51.382Z,13.70
2018-10-17T06:17:19.764Z,13.70
2018-10-17T06:19:47.989Z,13.70
2018-10-17T06:22:16.282Z,13.70
2018-10-17T06:24:44.584Z,13.70
2018-10-17T06:27:13.091Z,13.70
2018-10-17T06:29:41.494Z,13.70
2018-10-17T06:32:09.790Z,13.70
2018-10-17T06:34:38.094Z,13.70
2018-10-17T06:37:06.766Z,13.80
2018-10-17T06:39:34.946Z,13.80
2018-10-17T06:42:03.382Z,13.90
2018-10-17T06:44:31.691Z,13.90
2018-10-17T06:46:59.999Z,14.00
2018-10-17T06:49:28.351Z,14.10
2018-10-17T06:51:56.644Z,14.10
2018-10-17T06:54:24.951Z,14.20
2018-10-17T06:56:53.233Z,14.20
2018-10-17T06:59:21.526Z,14.20
2018-10-17T07:01:49.882Z,14.20
2018-10-17T07:04:18.110Z,14.20
2018-10-17T07:06:46.399Z,14.10
2018-10-17T07:09:14.694Z,14.10
2018-10-17T07:11:42.976Z,14.20
2018-10-17T07:14:11.257Z,14.30
2018-10-17T07:16:39.534Z,14.40
2018-10-17T07:19:07.925Z,14.40
2018-10-17T07:21:36.144Z,14.50
2018-10-17T07:24:04.471Z,14.60
2018-10-17T07:26:32.760Z,14.70
2018-10-17T07:29:01.132Z,14.80
2018-10-17T07:31:29.357Z,14.90
2018-10-17T07:33:57.628Z,15.10
2018-10-17T07:36:25.957Z,15.20
2018-10-17T07:38:54.287Z,15.30
2018-10-17T07:41:22.594Z,15.50
2018-10-17T07:43:50.889Z,15.70
2018-10-17T07:46:19.169Z,16.00
2018-10-17T07:48:47.444Z,16.40
2018-10-17T07:51:15.735Z,16.50
2018-10-17T07:53:44.052Z,16.70
2018-10-17T07:56:12.352Z,17.00
2018-10-17T07:58:40.617Z,17.30
2018-10-17T08:01:08.898Z,17.50
2018-10-17T08:03:37.200Z,17.90
2018-10-17T08:06:06.109Z,18.50
2018-10-17T08:08:34.353Z,18.90
2018-10-17T08:11:02.644Z,18.90
2018-10-17T08:13:30.952Z,19.00
2018-10-17T08:15:59.236Z,18.80
2018-10-17T08:18:27.494Z,18.50
2018-10-17T08:20:55.764Z,18.40
2018-10-17T08:23:24.028Z,18.40
2018-10-17T08:25:52.321Z,18.50
2018-10-17T08:28:20.676Z,18.80
2018-10-17T08:30:48.989Z,19.40
2018-10-17T08:33:17.256Z,20.30
2018-10-17T08:35:45.652Z,20.90
2018-10-17T08:38:13.887Z,21.40
2018-10-17T08:40:42.259Z,21.80
2018-10-17T08:43:10.524Z,21.70
2018-10-17T08:45:38.798Z,21.80
2018-10-17T08:48:07.063Z,21.60
2018-10-17T08:50:35.377Z,21.50
2018-10-17T08:53:03.647Z,21.40
2018-10-17T08:55:31.913Z,21.50
2018-10-17T08:58:00.235Z,21.70
2018-10-17T09:00:28.517Z,22.10
2018-10-17T09:02:56.812Z,22.10
2018-10-17T09:05:25.169Z,21.90
2018-10-17T09:07:53.489Z,21.80
2018-10-17T09:10:21.669Z,22.20
2018-10-17T09:12:50.056Z,22.40
2018-10-17T09:15:18.352Z,22.80
2018-10-17T09:17:46.625Z,23.00
2018-10-17T09:20:15.215Z,23.30
2018-10-17T09:22:43.213Z,23.60
2018-10-17T09:25:12.579Z,23.80
2018-10-17T09:27:40.791Z,24.30
2018-10-17T09:30:09.824Z,24.90
2018-10-17T09:32:38.116Z,25.70
2018-10-17T09:35:07.167Z,26.70
2018-10-17T09:37:35.612Z,27.20
2018-10-17T09:40:03.942Z,27.50
2018-10-17T09:42:32.222Z,27.20
2018-10-17T09:45:00.483Z,27.80
2018-10-17T09:47:28.776Z,28.20
2018-10-17T09:49:57.042Z,28.40
2018-10-17T09:52:25.540Z,27.90
2018-10-17T09:54:53.891Z,27.50
2018-10-17T09:57:22.140Z,27.40
2018-10-17T09:59:50.412Z,27.00
2018-10-17T10:02:18.750Z,27.40
2018-10-17T10:04:46.939Z,27.90
2018-10-17T10:07:15.211Z,28.30
2018-10-17T10:09:43.484Z,28.30
2018-10-17T10:12:11.779Z,28.60
2018-10-17T10:14:40.040Z,28.10
2018-10-17T10:17:08.408Z,28.00
2018-10-17T10:19:36.612Z,27.40
2018-10-17T10:22:05.646Z,27.30
2018-10-17T10:24:33.917Z,27.70
2018-10-17T10:27:02.185Z,27.90
2018-10-17T10:29:30.469Z,28.40
2018-10-17T10:31:58.756Z,28.60
2018-10-17T10:34:27.013Z,28.20
2018-10-17T10:36:55.284Z,28.60
2018-10-17T10:39:23.568Z,28.60
2018-10-17T10:41:51.912Z,29.10
2018-10-17T10:44:20.167Z,30.00
2018-10-17T10:46:48.424Z,30.00
2018-10-17T10:49:16.777Z,29.60
2018-10-17T10:51:45.042Z,29.50
2018-10-17T10:54:13.444Z,29.40
2018-10-17T10:56:41.565Z,29.40
2018-10-17T10:59:09.917Z,29.40
2018-10-17T11:01:38.124Z,29.20
2018-10-17T11:04:06.541Z,28.80
2018-10-17T11:06:34.822Z,28.60
2018-10-17T11:09:03.104Z,28.80
2018-10-17T11:11:31.364Z,27.90
2018-10-17T11:13:59.687Z,27.80
2018-10-17T11:16:28.060Z,27.70
2018-10-17T11:18:56.328Z,27.20
2018-10-17T11:21:24.584Z,26.80
2018-10-17T11:23:52.881Z,26.70
2018-10-17T11:26:21.160Z,26.50
2018-10-17T11:28:49.472Z,26.30
2018-10-17T11:31:17.753Z,26.50
2018-10-17T11:33:46.024Z,26.70
2018-10-17T11:36:14.288Z,26.60
2018-10-17T11:38:42.561Z,26.70
2018-10-17T11:41:10.976Z,27.00
2018-10-17T11:43:39.130Z,27.30
2018-10-17T11:46:07.390Z,27.50
2018-10-17T11:48:35.659Z,27.20
2018-10-17T11:51:03.960Z,27.00
2018-10-17T11:53:32.243Z,26.90
2018-10-17T11:56:00.680Z,26.90
2018-10-17T11:58:28.947Z,26.80
2018-10-17T12:00:57.220Z,26.50
2018-10-17T12:03:25.524Z,26.60
2018-10-17T12:05:53.793Z,26.60
2018-10-17T12:08:22.049Z,26.50
2018-10-17T12:10:50.323Z,26.30
2018-10-17T12:13:18.595Z,26.00
2018-10-17T12:15:46.871Z,26.00
2018-10-17T12:18:15.170Z,26.10
2018-10-17T12:20:43.443Z,26.10
2018-10-17T12:23:11.730Z,26.10
2018-10-17T12:25:40.016Z,26.20
2018-10-17T12:28:08.405Z,26.20
2018-10-17T12:30:36.583Z,26.20
2018-10-17T12:33:05.203Z,26.10
2018-10-17T12:35:33.493Z,25.90
2018-10-17T12:38:01.808Z,25.70
2018-10-17T12:40:30.171Z,25.70
2018-10-17T12:42:58.519Z,25.60
2018-10-17T12:45:26.800Z,25.50
2018-10-17T12:47:55.044Z,25.50
2018-10-17T12:50:23.340Z,25.30
2018-10-17T12:52:51.790Z,25.40
2018-10-17T12:55:19.950Z,25.40
2018-10-17T12:57:48.231Z,25.30
2018-10-17T13:00:16.516Z,25.20
2018-10-17T13:02:44.785Z,25.30
2018-10-17T13:05:13.245Z,25.20
2018-10-17T13:07:41.415Z,25.10
2018-10-17T13:10:10.636Z,25.00
2018-10-17T13:12:38.927Z,24.90
2018-10-17T13:15:08.746Z,25.00
2018-10-17T13:17:36.960Z,25.00
2018-10-17T13:20:05.223Z,24.90
2018-10-17T13:22:33.511Z,24.90
2018-10-17T13:25:01.888Z,25.00
2018-10-17T13:27:30.079Z,25.00
2018-10-17T13:29:58.523Z,25.00
2018-10-17T13:32:26.836Z,25.00
2018-10-17T13:34:55.159Z,25.10
2018-10-17T13:37:23.451Z,25.00
2018-10-17T13:39:51.714Z,25.00
2018-10-17T13:42:20.008Z,24.90
2018-10-17T13:44:48.288Z,24.80
2018-10-17T13:47:16.866Z,24.70
2018-10-17T13:49:45.182Z,24.60
2018-10-17T13:52:13.364Z,24.50
2018-10-17T13:54:41.666Z,24.40
2018-10-17T13:57:09.920Z,24.30
2018-10-17T13:59:38.208Z,24.30
2018-10-17T14:02:06.503Z,24.20
2018-10-17T14:04:34.764Z,24.20
2018-10-17T14:07:03.095Z,24.00
2018-10-17T14:09:31.364Z,24.00
2018-10-17T14:11:59.642Z,23.90
2018-10-17T14:14:27.959Z,23.80
2018-10-17T14:16:56.256Z,23.80
2018-10-17T14:19:24.530Z,23.70
2018-10-17T14:21:52.801Z,23.60
2018-10-17T14:24:21.127Z,23.50
2018-10-17T14:26:49.420Z,23.50
2018-10-17T14:29:17.705Z,23.40
2018-10-17T14:31:45.976Z,23.40
2018-10-17T14:34:14.228Z,23.30
2018-10-17T14:36:42.519Z,23.30
2018-10-17T14:39:12.442Z,23.20
2018-10-17T14:41:40.621Z,23.20
2018-10-17T14:44:08.899Z,23.10
2018-10-17T14:46:37.184Z,23.00
2018-10-17T14:49:05.632Z,23.00
2018-10-17T14:51:33.891Z,22.90
2018-10-17T14:54:02.179Z,22.90
2018-10-17T14:56:30.444Z,22.80
2018-10-17T14:58:58.763Z,22.70
2018-10-17T15:01:27.092Z,22.70
2018-10-17T15:03:55.378Z,22.70
2018-10-17T15:06:23.633Z,22.60
2018-10-17T15:08:51.955Z,22.60
2018-10-17T15:11:20.435Z,22.60
2018-10-17T15:13:48.508Z,22.60
2018-10-17T15:16:16.780Z,22.60
2018-10-17T15:18:45.062Z,22.50
2018-10-17T15:21:13.389Z,22.50
2018-10-17T15:23:41.625Z,22.50
2018-10-17T15:26:09.877Z,22.40
2018-10-17T15:28:38.173Z,22.40
2018-10-17T15:31:06.474Z,22.30
2018-10-17T15:33:34.735Z,22.20
2018-10-17T15:36:03.013Z,22.20
2018-10-17T15:38:31.296Z,22.10
2018-10-17T15:40:59.576Z,22.00
2018-10-17T15:43:27.871Z,21.80
2018-10-17T15:45:56.155Z,21.60
2018-10-17T15:48:24.422Z,21.50
2018-10-17T15:53:17.429Z,21.30
2018-10-17T15:55:45.624Z,21.10
2018-10-17T15:58:13.839Z,21.10
2018-10-17T16:00:42.044Z,21.00
2018-10-17T16:03:10.288Z,20.90
2018-10-17T16:05:38.529Z,20.80
2018-10-17T16:08:06.752Z,20.70
2018-10-17T16:10:34.963Z,20.60
2018-10-17T16:13:03.154Z,20.60
2018-10-17T16:15:31.375Z,20.50
2018-10-17T16:17:59.670Z,20.40
2018-10-17T16:20:27.857Z,20.40
2018-10-17T16:22:56.129Z,20.30
2018-10-17T16:25:24.387Z,20.20
2018-10-17T16:27:52.647Z,20.20
2018-10-17T16:30:21.004Z,20.10
2018-10-17T16:32:49.089Z,20.00
2018-10-17T16:35:17.308Z,19.90
2018-10-17T16:37:45.524Z,19.90
2018-10-17T16:40:13.751Z,19.90
2018-10-17T16:42:41.969Z,19.80
2018-10-17T16:45:11.055Z,19.70
2018-10-17T16:47:39.307Z,19.60
2018-10-17T16:50:07.566Z,19.50
2018-10-17T16:52:36.090Z,19.40
2018-10-17T16:55:04.894Z,19.30
2018-10-17T16:57:33.097Z,19.30
2018-10-17T17:00:01.389Z,19.20
2018-10-17T17:02:29.572Z,19.10
2018-10-17T17:04:57.798Z,19.10
2018-10-17T17:07:26.003Z,19.00
2018-10-17T17:09:54.239Z,18.90
2018-10-17T17:12:22.465Z,18.80
2018-10-17T17:14:50.945Z,18.80
2018-10-17T17:17:19.180Z,18.70
2018-10-17T17:19:47.452Z,18.70
2018-10-17T17:22:15.652Z,18.60
2018-10-17T17:24:43.860Z,18.60
2018-10-17T17:27:12.151Z,18.60
2018-10-17T17:29:40.364Z,18.50
2018-10-17T17:32:08.643Z,18.40
2018-10-17T17:34:36.867Z,18.40
2018-10-17T17:37:05.361Z,18.40
2018-10-17T17:39:33.637Z,18.30
2018-10-17T17:42:01.929Z,18.30
2018-10-17T17:44:30.146Z,18.20
2018-10-17T17:46:58.396Z,18.20
2018-10-17T17:49:26.762Z,18.20
2018-10-17T17:51:55.026Z,18.10
2018-10-17T17:54:23.236Z,18.10
2018-10-17T17:56:51.467Z,18.10
2018-10-17T17:59:19.718Z,18.00
2018-10-17T18:01:48.073Z,18.00
2018-10-17T18:04:16.316Z,18.00
2018-10-17T18:06:44.540Z,17.90
2018-10-17T18:09:13.345Z,17.90
2018-10-17T18:11:41.566Z,17.90
2018-10-17T18:14:09.856Z,17.90
2018-10-17T18:16:38.052Z,17.80
2018-10-17T18:19:06.276Z,17.80
2018-10-17T18:21:34.522Z,17.70
2018-10-17T18:24:02.740Z,17.70
2018-10-17T18:26:30.951Z,17.70
2018-10-17T18:28:59.159Z,17.70
2018-10-17T18:31:27.630Z,17.70
2018-10-17T18:33:55.906Z,17.60
2018-10-17T18:36:24.097Z,17.60
2018-10-17T18:38:52.325Z,17.50
2018-10-17T18:41:20.557Z,17.50
2018-10-17T18:43:48.776Z,17.50
2018-10-17T18:46:17.044Z,17.40
2018-10-17T18:48:45.260Z,17.40
2018-10-17T18:51:13.546Z,17.40
2018-10-17T18:53:41.758Z,17.40
2018-10-17T18:56:10.075Z,17.30
2018-10-17T18:58:38.231Z,17.30
2018-10-17T19:01:06.575Z,17.20
2018-10-17T19:03:34.827Z,17.20
2018-10-17T19:06:03.027Z,17.10
2018-10-17T19:08:31.253Z,17.10
2018-10-17T19:10:59.463Z,17.10
2018-10-17T19:13:27.696Z,17.00
2018-10-17T19:15:56.209Z,17.00
2018-10-17T19:18:24.412Z,17.00
2018-10-17T19:20:52.624Z,17.00
2018-10-17T19:23:20.841Z,16.90
2018-10-17T19:25:49.050Z,16.90
2018-10-17T19:28:17.278Z,16.90
2018-10-17T19:30:45.535Z,16.90
2018-10-17T19:33:13.792Z,16.90
2018-10-17T19:35:41.956Z,16.80
2018-10-17T19:38:10.186Z,16.80
2018-10-17T19:40:38.379Z,16.80
2018-10-17T19:43:06.605Z,16.80
2018-10-17T19:45:34.812Z,16.80
2018-10-17T19:48:03.042Z,16.70
2018-10-17T19:50:31.271Z,16.80
2018-10-17T19:52:59.488Z,16.70
2018-10-17T19:55:27.690Z,16.70
2018-10-17T19:57:55.929Z,16.70
2018-10-17T20:00:24.136Z,16.70
2018-10-17T20:02:52.368Z,16.60
2018-10-17T20:05:20.588Z,16.60
2018-10-17T20:07:48.870Z,16.60
2018-10-17T20:10:17.067Z,16.50
2018-10-17T20:12:45.273Z,16.50
2018-10-17T20:15:13.531Z,16.40
2018-10-17T20:17:41.768Z,16.40
2018-10-17T20:20:10.046Z,16.40
2018-10-17T20:22:38.291Z,16.40
2018-10-17T20:25:06.634Z,16.30
2018-10-17T20:27:34.784Z,16.30
2018-10-17T20:30:03.015Z,16.30
2018-10-17T20:32:31.284Z,16.20
2018-10-17T20:34:59.599Z,16.20
2018-10-17T20:37:27.733Z,16.20
2018-10-17T20:39:55.950Z,16.20
2018-10-17T20:42:24.211Z,16.10
2018-10-17T20:44:52.397Z,16.10
2018-10-17T20:47:20.597Z,16.00
2018-10-17T20:49:48.816Z,16.00
2018-10-17T20:52:17.175Z,15.90
2018-10-17T20:54:45.380Z,15.90
2018-10-17T20:57:13.592Z,15.90
2018-10-17T20:59:41.812Z,15.90
2018-10-17T21:02:10.070Z,15.90
2018-10-17T21:04:38.599Z,15.90
2018-10-17T21:07:06.821Z,15.80
2018-10-17T21:09:35.048Z,15.90
2018-10-17T21:12:03.247Z,15.80
2018-10-17T21:14:31.501Z,15.80
2018-10-17T21:16:59.721Z,15.70
2018-10-17T21:19:27.919Z,15.70
2018-10-17T21:21:56.139Z,15.60
2018-10-17T21:24:24.340Z,15.50
2018-10-17T21:26:52.614Z,15.50
2018-10-17T21:29:20.812Z,15.40
2018-10-17T21:31:49.048Z,15.30
2018-10-17T21:34:17.339Z,15.30
2018-10-17T21:36:45.561Z,15.30
2018-10-17T21:39:14.220Z,15.30
2018-10-17T21:41:42.515Z,15.20
2018-10-17T21:44:11.435Z,15.20
2018-10-17T21:46:40.187Z,15.20
2018-10-17T21:49:09.388Z,15.20
2018-10-17T21:51:37.777Z,15.10
2018-10-17T21:54:06.195Z,15.00
2018-10-17T21:56:34.549Z,15.00
2018-10-17T21:59:02.903Z,15.00
2018-10-17T22:01:31.123Z,15.00
2018-10-17T22:03:59.348Z,15.00
2018-10-17T22:06:27.574Z,14.90
2018-10-17T22:08:55.781Z,14.90
2018-10-17T22:11:23.988Z,14.80
2018-10-17T22:13:52.196Z,14.70
2018-10-17T22:16:20.424Z,14.70
2018-10-17T22:18:48.665Z,14.60
2018-10-17T22:21:16.874Z,14.60
2018-10-17T22:23:45.139Z,14.40
2018-10-17T22:26:13.397Z,14.40
2018-10-17T22:28:41.597Z,14.30
2018-10-17T22:31:09.832Z,14.20
2018-10-17T22:33:38.036Z,14.20
2018-10-17T22:36:06.276Z,14.20
2018-10-17T22:38:34.507Z,14.10
2018-10-17T22:41:02.831Z,14.00
2018-10-17T22:43:31.023Z,13.90
2018-10-17T22:45:59.226Z,13.90
2018-10-17T22:48:27.464Z,13.90
2018-10-17T22:50:55.677Z,13.80
2018-10-17T22:53:23.894Z,13.80
2018-10-17T22:55:52.103Z,13.80
2018-10-17T22:58:20.323Z,13.80
2018-10-17T23:00:48.907Z,13.70
2018-10-17T23:03:17.155Z,13.70
2018-10-17T23:05:45.436Z,13.70
2018-10-17T23:08:13.684Z,13.70
2018-10-17T23:10:41.880Z,13.60
2018-10-17T23:13:10.107Z,13.60
2018-10-17T23:15:38.304Z,13.50
2018-10-17T23:18:06.516Z,13.50
2018-10-17T23:20:34.719Z,13.50
2018-10-17T23:23:03.115Z,13.40
2018-10-17T23:25:31.328Z,13.40
2018-10-17T23:27:59.542Z,13.40
2018-10-17T23:30:27.760Z,13.30
2018-10-17T23:32:55.987Z,13.30
2018-10-17T23:35:24.210Z,13.30
2018-10-17T23:37:52.446Z,13.20
2018-10-17T23:40:20.651Z,13.30
2018-10-17T23:42:48.918Z,13.30
2018-10-17T23:45:17.083Z,13.30
2018-10-17T23:47:45.331Z,13.30
2018-10-17T23:50:13.690Z,13.30
2018-10-17T23:52:41.755Z,13.20
2018-10-17T23:55:10.180Z,13.20
2018-10-17T23:57:38.542Z,13.20
